KRNH/RNH METAR and TAF weather

Enter ICAO airport designator
Station Type Date Time Source
KRNH METAR 2021/10/24 21:55 UTC NOAA

KRNH 242155Z AUTO 06010G14KT 10SM CLR 09/M01 A2995 RMK AO2 T00851013


Station Type Date Time Source
KRNH Decoded METAR 2021/10/24 21:55 UTC NOAA

New Richmond, New Richmond Municipal Airport, WI, United States (KRNH) 45-08-54N 092-32-17W
Oct 24, 2021 - 05:55 PM EDT / 2021.10.24 2155 UTC
Wind: from the ENE (060 degrees) at 12 MPH (10 KT) gusting to 16 MPH (14 KT):0
Visibility: 10 mile(s):0
Sky conditions: clear
Temperature: 47.3 F (8.5 C)
Dew Point: 29.7 F (-1.3 C)
Relative Humidity: 50%
Pressure (altimeter): 29.95 in. Hg (1014 hPa)
ob: KRNH 242155Z AUTO 06010G14KT 10SM CLR 09/M01 A2995 RMK AO2 T00851013
cycle: 22

Station Type Date Time Source
KRNH TAF 2021/10/24 22:34 UTC NOAA

TAF
AMD KRNH 242131Z 2422/2518 05009G15KT P6SM OVC150
FM250600 05006KT P6SM BKN180
FM251400 07006KT P6SM SCT200

Example: see airport list